createdAt,value
2022-08-03T00:01:47.628Z,68.10
2022-08-03T00:04:15.941Z,68.11
2022-08-03T00:06:45.514Z,68.31
2022-08-03T00:09:13.518Z,68.25
2022-08-03T00:11:41.783Z,68.22
2022-08-03T00:14:10.025Z,68.08
2022-08-03T00:16:39.972Z,68.07
2022-08-03T00:19:08.235Z,68.18
2022-08-03T00:21:36.623Z,68.06
2022-08-03T00:24:05.230Z,68.37
2022-08-03T00:26:33.818Z,68.24
2022-08-03T00:29:02.650Z,68.06
2022-08-03T00:31:39.861Z,67.73
2022-08-03T00:34:30.954Z,67.64
2022-08-03T00:37:04.922Z,67.58
2022-08-03T00:39:34.503Z,67.47
2022-08-03T00:42:03.951Z,67.28
2022-08-03T00:44:32.562Z,67.27
2022-08-03T00:47:00.861Z,67.01
2022-08-03T00:49:31.032Z,66.94
2022-08-03T00:51:59.453Z,67.28
2022-08-03T00:54:27.927Z,67.03
2022-08-03T00:57:00.112Z,66.98
2022-08-03T00:59:28.774Z,66.72
2022-08-03T01:01:57.405Z,66.65
2022-08-03T01:04:25.533Z,66.69
2022-08-03T01:07:03.333Z,66.35
2022-08-03T01:09:37.395Z,66.15
2022-08-03T01:12:10.105Z,66.06
2022-08-03T01:14:41.197Z,66.00
2022-08-03T01:17:14.269Z,65.92
2022-08-03T01:19:49.680Z,65.59
2022-08-03T01:22:57.517Z,65.21
2022-08-03T01:25:54.534Z,64.68
2022-08-03T01:28:37.090Z,64.49
2022-08-03T01:31:09.353Z,64.46
2022-08-03T01:33:38.943Z,64.67
2022-08-03T01:36:14.993Z,64.36
2022-08-03T01:38:44.904Z,64.27
2022-08-03T01:41:18.877Z,63.98
2022-08-03T01:44:26.515Z,64.04
2022-08-03T01:46:40.491Z,64.09
2022-08-03T01:49:16.245Z,63.67
2022-08-03T01:51:58.580Z,63.71
2022-08-03T01:54:34.574Z,63.79
2022-08-03T01:57:04.470Z,63.77
2022-08-03T01:59:35.037Z,63.71
2022-08-03T02:02:31.813Z,63.71
2022-08-03T02:04:55.481Z,63.70
2022-08-03T02:07:25.928Z,63.78
2022-08-03T02:09:55.513Z,63.82
2022-08-03T02:12:25.334Z,63.81
2022-08-03T02:14:53.864Z,63.96
2022-08-03T02:17:39.000Z,63.98
2022-08-03T02:20:10.504Z,64.12
2022-08-03T02:22:41.317Z,64.78
2022-08-03T02:25:11.105Z,64.19
2022-08-03T02:27:43.665Z,63.29
2022-08-03T02:30:13.667Z,63.36
2022-08-03T02:32:45.589Z,63.04
2022-08-03T02:35:17.184Z,62.44
2022-08-03T02:37:50.464Z,62.44
2022-08-03T02:40:19.449Z,62.32
2022-08-03T02:42:48.780Z,62.18
2022-08-03T02:45:18.402Z,62.16
2022-08-03T02:47:54.360Z,62.17
2022-08-03T02:50:24.123Z,62.24
2022-08-03T02:52:53.361Z,61.95
2022-08-03T02:55:23.241Z,61.89
2022-08-03T02:57:51.444Z,61.70
2022-08-03T03:00:27.449Z,61.67
2022-08-03T03:02:59.592Z,61.40
2022-08-03T03:05:55.278Z,61.19
2022-08-03T03:08:25.913Z,61.10
2022-08-03T03:10:56.060Z,60.95
2022-08-03T03:13:24.301Z,60.58
2022-08-03T03:15:53.709Z,60.32
2022-08-03T03:18:24.093Z,60.66
2022-08-03T03:20:53.239Z,60.31
2022-08-03T03:23:22.644Z,60.37
2022-08-03T03:25:51.951Z,60.22
2022-08-03T03:28:20.881Z,60.06
2022-08-03T03:30:52.733Z,60.22
2022-08-03T03:33:22.971Z,60.23
2022-08-03T03:35:52.887Z,60.35
2022-08-03T03:38:21.895Z,60.71
2022-08-03T03:40:50.428Z,60.73
2022-08-03T03:43:19.488Z,61.03
2022-08-03T03:45:49.124Z,60.91
2022-08-03T03:48:17.589Z,60.89
2022-08-03T03:50:47.373Z,60.91
2022-08-03T03:53:15.963Z,60.98
2022-08-03T03:55:57.729Z,60.99
2022-08-03T03:58:31.526Z,60.82
2022-08-03T04:01:00.275Z,60.61
2022-08-03T04:03:28.479Z,60.27
2022-08-03T04:06:15.464Z,59.42
2022-08-03T04:09:01.239Z,58.71
2022-08-03T04:11:33.269Z,57.94
2022-08-03T04:14:04.460Z,57.03
2022-08-03T04:16:37.998Z,56.04
2022-08-03T04:19:11.219Z,55.05
2022-08-03T04:21:42.862Z,54.17
2022-08-03T04:24:11.907Z,53.56
2022-08-03T04:26:41.928Z,53.38
2022-08-03T04:29:11.782Z,52.89
2022-08-03T04:31:41.413Z,51.75
2022-08-03T04:34:09.762Z,50.81
2022-08-03T04:36:46.218Z,49.64
2022-08-03T04:39:15.875Z,48.37
2022-08-03T04:42:07.783Z,47.45
2022-08-03T04:44:37.578Z,47.24
2022-08-03T04:47:06.254Z,47.03
2022-08-03T04:49:34.904Z,46.56
2022-08-03T04:52:04.884Z,45.61
2022-08-03T04:54:40.674Z,45.44
2022-08-03T04:57:09.061Z,44.33
2022-08-03T04:59:39.166Z,43.96
2022-08-03T05:02:09.610Z,42.88
2022-08-03T05:04:41.076Z,42.36
2022-08-03T05:07:11.683Z,41.25
2022-08-03T05:09:49.954Z,40.73
2022-08-03T05:12:28.376Z,40.49
2022-08-03T05:15:00.281Z,39.89
2022-08-03T05:17:28.611Z,39.39
2022-08-03T05:19:57.178Z,38.54
2022-08-03T05:22:26.798Z,38.27
2022-08-03T05:24:55.142Z,37.74
2022-08-03T05:27:23.327Z,37.65
2022-08-03T05:29:51.983Z,37.50
2022-08-03T05:32:20.174Z,37.61
2022-08-03T05:34:48.571Z,37.02
2022-08-03T05:37:16.840Z,37.01
2022-08-03T05:39:46.353Z,36.54
2022-08-03T05:42:20.224Z,36.35
2022-08-03T05:44:48.268Z,36.21
2022-08-03T05:47:16.401Z,35.83
2022-08-03T05:49:45.389Z,35.74
2022-08-03T05:52:16.707Z,35.32
2022-08-03T05:54:56.269Z,34.98
2022-08-03T05:57:25.844Z,34.35
2022-08-03T05:59:58.058Z,33.98
2022-08-03T06:02:27.418Z,34.64
2022-08-03T06:04:56.766Z,34.10
2022-08-03T06:07:26.666Z,34.35
2022-08-03T06:10:34.240Z,34.56
2022-08-03T06:12:47.910Z,33.78
2022-08-03T06:15:16.281Z,34.06
2022-08-03T06:17:48.666Z,33.88
2022-08-03T06:20:18.116Z,34.60
2022-08-03T06:22:51.330Z,34.28
2022-08-03T06:25:31.089Z,34.30
2022-08-03T06:28:01.813Z,34.65
2022-08-03T06:30:30.196Z,34.94
2022-08-03T06:32:58.210Z,34.40
2022-08-03T06:35:27.889Z,34.20
2022-08-03T06:37:57.387Z,33.72
2022-08-03T06:40:31.332Z,33.70
2022-08-03T06:43:03.997Z,33.39
2022-08-03T06:45:34.225Z,33.48
2022-08-03T06:48:03.140Z,32.89
2022-08-03T06:50:32.710Z,33.17
2022-08-03T06:53:01.505Z,33.20
2022-08-03T06:55:29.602Z,32.31
2022-08-03T06:57:59.816Z,32.98
2022-08-03T07:00:33.302Z,32.47
2022-08-03T07:03:01.400Z,32.66
2022-08-03T07:05:30.755Z,31.96
2022-08-03T07:07:59.264Z,31.63
2022-08-03T07:10:28.379Z,31.31
2022-08-03T07:12:58.981Z,31.14
2022-08-03T07:15:53.684Z,30.86
2022-08-03T07:18:17.277Z,30.78
2022-08-03T07:20:53.687Z,30.74
2022-08-03T07:23:21.977Z,30.37
2022-08-03T07:25:51.862Z,29.89
2022-08-03T07:28:21.287Z,30.03
2022-08-03T07:30:50.568Z,29.76
2022-08-03T07:33:22.077Z,29.82
2022-08-03T07:35:50.925Z,29.13
2022-08-03T07:38:21.189Z,29.08
2022-08-03T07:40:50.138Z,28.59
2022-08-03T07:43:18.702Z,28.97
2022-08-03T07:45:47.112Z,28.83
2022-08-03T07:48:15.224Z,28.37
2022-08-03T07:50:45.287Z,28.48
2022-08-03T07:53:14.596Z,28.36
2022-08-03T07:55:43.418Z,28.52
2022-08-03T07:58:19.210Z,28.17
2022-08-03T08:00:51.098Z,28.52
2022-08-03T08:03:19.414Z,28.71
2022-08-03T08:05:49.101Z,28.79
2022-08-03T08:08:22.203Z,28.23
2022-08-03T08:10:57.767Z,28.21
2022-08-03T08:13:26.588Z,28.63
2022-08-03T08:15:54.707Z,27.97
2022-08-03T08:18:25.108Z,27.38
2022-08-03T08:20:56.245Z,27.29
2022-08-03T08:23:42.824Z,27.33
2022-08-03T08:26:16.872Z,27.59
2022-08-03T08:28:45.301Z,27.48
2022-08-03T08:31:15.707Z,27.62
2022-08-03T08:36:33.830Z,27.59
2022-08-03T08:39:02.440Z,27.11
2022-08-03T08:41:33.901Z,26.62
2022-08-03T08:44:02.192Z,26.17
2022-08-03T08:46:32.203Z,25.86
2022-08-03T08:49:05.045Z,26.20
2022-08-03T08:51:59.115Z,26.68
2022-08-03T08:54:28.975Z,26.24
2022-08-03T08:56:59.404Z,26.39
2022-08-03T08:59:48.955Z,26.30
2022-08-03T09:02:16.713Z,26.08
2022-08-03T09:04:45.744Z,26.56
2022-08-03T09:07:20.354Z,26.70
2022-08-03T09:10:04.628Z,26.09
2022-08-03T09:12:42.467Z,25.87
2022-08-03T09:15:22.424Z,26.11
2022-08-03T09:17:51.576Z,25.81
2022-08-03T09:20:22.898Z,26.19
2022-08-03T09:22:59.260Z,25.89
2022-08-03T09:25:32.357Z,25.80
2022-08-03T09:28:10.418Z,25.24
2022-08-03T09:30:40.688Z,25.81
2022-08-03T09:33:10.630Z,26.11
2022-08-03T09:35:58.036Z,26.77
2022-08-03T09:38:32.138Z,26.66
2022-08-03T09:41:01.070Z,26.84
2022-08-03T09:43:29.447Z,26.68
2022-08-03T09:46:07.796Z,26.02
2022-08-03T09:48:37.513Z,25.58
2022-08-03T09:51:13.453Z,25.89
2022-08-03T09:54:01.873Z,25.77
2022-08-03T09:56:41.412Z,25.72
2022-08-03T09:59:10.044Z,25.76
2022-08-03T10:01:42.621Z,26.02
2022-08-03T10:04:15.569Z,26.11
2022-08-03T10:06:45.775Z,25.88
2022-08-03T10:09:17.366Z,25.48
2022-08-03T10:11:47.837Z,25.98
2022-08-03T10:14:19.931Z,26.35
2022-08-03T10:16:49.451Z,26.53
2022-08-03T10:19:19.644Z,26.93
2022-08-03T10:21:50.831Z,27.24
2022-08-03T10:24:26.331Z,27.58
2022-08-03T10:26:59.384Z,27.36
2022-08-03T10:29:30.303Z,27.48
2022-08-03T10:32:01.134Z,27.32
2022-08-03T10:34:35.733Z,27.45
2022-08-03T10:37:11.353Z,27.02
2022-08-03T10:39:53.477Z,26.92
2022-08-03T10:42:34.882Z,27.09
2022-08-03T10:45:06.928Z,27.13
2022-08-03T10:47:36.773Z,27.65
2022-08-03T10:50:08.650Z,27.20
2022-08-03T10:52:40.994Z,27.60
2022-08-03T10:55:50.870Z,27.38
2022-08-03T10:58:57.534Z,27.59
2022-08-03T11:01:59.964Z,27.38
2022-08-03T11:04:30.461Z,27.49
2022-08-03T11:07:23.842Z,28.21
2022-08-03T11:09:53.805Z,28.41
2022-08-03T11:12:31.234Z,28.41
2022-08-03T11:15:02.916Z,28.41
2022-08-03T11:17:31.722Z,28.30
2022-08-03T11:20:00.145Z,28.49
2022-08-03T11:22:49.108Z,28.46
2022-08-03T11:25:54.098Z,28.36
2022-08-03T11:28:26.302Z,28.90
2022-08-03T11:30:55.157Z,28.61
2022-08-03T11:33:32.746Z,28.82
2022-08-03T11:36:03.123Z,28.79
2022-08-03T11:38:31.534Z,29.05
2022-08-03T11:41:02.893Z,28.87
2022-08-03T11:43:46.786Z,28.50
2022-08-03T11:46:28.562Z,28.87
2022-08-03T11:49:10.451Z,28.51
2022-08-03T11:51:40.440Z,28.71
2022-08-03T11:54:08.963Z,29.01
2022-08-03T11:56:49.027Z,29.22
2022-08-03T11:59:21.711Z,29.35
2022-08-03T12:01:51.108Z,29.10
2022-08-03T12:04:20.643Z,29.44
2022-08-03T12:07:02.319Z,29.50
2022-08-03T12:09:34.571Z,29.71
2022-08-03T12:12:04.294Z,30.15
2022-08-03T12:14:49.730Z,30.42
2022-08-03T12:17:20.578Z,30.91
2022-08-03T12:19:49.286Z,31.10
2022-08-03T12:22:20.490Z,31.61
2022-08-03T12:24:48.989Z,31.88
2022-08-03T12:27:29.742Z,31.91
2022-08-03T12:29:59.397Z,32.20
2022-08-03T12:32:28.669Z,32.28
2022-08-03T12:35:01.238Z,32.18
2022-08-03T12:37:30.880Z,32.26
2022-08-03T12:40:09.505Z,32.36
2022-08-03T12:42:40.832Z,32.45
2022-08-03T12:45:22.906Z,32.67
2022-08-03T12:47:52.666Z,32.95
2022-08-03T12:50:29.143Z,33.09
2022-08-03T12:52:57.887Z,32.89
2022-08-03T12:55:57.922Z,32.94
2022-08-03T12:58:35.945Z,32.99
2022-08-03T13:01:09.112Z,32.81
2022-08-03T13:03:45.655Z,32.81
2022-08-03T13:06:15.306Z,33.13
2022-08-03T13:08:44.204Z,33.34
2022-08-03T13:11:29.522Z,33.39
2022-08-03T13:14:16.644Z,33.77
2022-08-03T13:16:50.537Z,33.70
2022-08-03T13:19:18.821Z,33.73
2022-08-03T13:22:03.395Z,33.63
2022-08-03T13:24:33.820Z,33.61
2022-08-03T13:27:22.555Z,33.67
2022-08-03T13:29:53.150Z,33.96
2022-08-03T13:32:23.470Z,33.86
2022-08-03T13:34:51.600Z,33.78
2022-08-03T13:37:30.068Z,34.49
2022-08-03T13:40:02.548Z,34.04
2022-08-03T13:42:34.184Z,33.88
2022-08-03T13:45:04.705Z,33.80
2022-08-03T13:47:33.410Z,33.75
2022-08-03T13:50:03.016Z,33.73
2022-08-03T13:52:33.126Z,34.12
2022-08-03T13:55:01.484Z,33.90
2022-08-03T13:58:03.025Z,34.26
2022-08-03T14:00:27.680Z,34.45
2022-08-03T14:03:14.889Z,34.10
2022-08-03T14:05:44.223Z,34.30
2022-08-03T14:08:13.313Z,34.21
2022-08-03T14:10:43.751Z,34.15
2022-08-03T14:13:14.432Z,34.30
2022-08-03T14:15:51.259Z,34.37
2022-08-03T14:18:28.983Z,34.42
2022-08-03T14:21:07.376Z,34.65
2022-08-03T14:23:37.584Z,34.30
2022-08-03T14:26:06.406Z,34.04
2022-08-03T14:28:34.517Z,33.75
2022-08-03T14:31:04.201Z,34.29
2022-08-03T14:33:36.756Z,33.59
2022-08-03T14:36:05.691Z,33.86
2022-08-03T14:38:34.972Z,33.57
2022-08-03T14:41:05.393Z,33.52
2022-08-03T14:43:34.399Z,33.20
2022-08-03T14:46:03.983Z,33.49
2022-08-03T14:50:33.284Z,33.53
2022-08-03T14:51:21.585Z,33.40
2022-08-03T14:53:49.821Z,33.23
2022-08-03T14:56:17.975Z,32.96
2022-08-03T14:58:46.009Z,33.26
2022-08-03T15:02:02.856Z,33.38
2022-08-03T15:04:04.909Z,33.18
2022-08-03T15:06:33.057Z,33.03
2022-08-03T15:09:21.219Z,33.06
2022-08-03T15:11:49.537Z,33.33
2022-08-03T15:14:19.546Z,33.21
2022-08-03T15:16:57.737Z,33.29
2022-08-03T15:20:01.997Z,33.32
2022-08-03T15:22:20.421Z,33.03
2022-08-03T15:24:49.315Z,33.20
2022-08-03T15:27:17.844Z,33.22
2022-08-03T15:30:09.433Z,32.95
2022-08-03T15:32:35.831Z,33.28
2022-08-03T15:35:04.157Z,33.30
2022-08-03T15:37:32.376Z,33.38
2022-08-03T15:40:01.189Z,33.67
2022-08-03T15:42:30.596Z,34.62
2022-08-03T15:44:59.087Z,34.59
2022-08-03T15:47:28.785Z,34.48
2022-08-03T15:49:58.237Z,34.42
2022-08-03T15:52:26.531Z,34.48
2022-08-03T15:54:54.844Z,34.81
2022-08-03T15:57:23.299Z,34.36
2022-08-03T15:59:52.077Z,34.54
2022-08-03T16:02:21.455Z,34.33
2022-08-03T16:04:50.115Z,34.29
2022-08-03T16:07:40.518Z,34.38
2022-08-03T16:10:29.012Z,34.75
2022-08-03T16:12:58.747Z,34.82
2022-08-03T16:15:28.363Z,34.68
2022-08-03T16:17:57.363Z,34.56
2022-08-03T16:20:31.668Z,34.67
2022-08-03T16:23:11.390Z,34.89
2022-08-03T16:25:41.467Z,34.72
2022-08-03T16:28:14.645Z,34.56
2022-08-03T16:30:44.527Z,34.82
2022-08-03T16:33:16.676Z,34.81
2022-08-03T16:35:46.059Z,34.42
2022-08-03T16:38:19.191Z,33.77
2022-08-03T16:40:51.632Z,33.93
2022-08-03T16:43:21.134Z,34.59
2022-08-03T16:45:49.605Z,34.44
2022-08-03T16:48:18.826Z,34.73
2022-08-03T16:50:47.405Z,34.92
2022-08-03T16:53:32.997Z,35.11
2022-08-03T16:56:09.481Z,35.23
2022-08-03T16:58:42.220Z,35.16
2022-08-03T17:01:21.705Z,35.01
2022-08-03T17:04:01.918Z,34.44
2022-08-03T17:06:34.499Z,34.02
2022-08-03T17:09:08.322Z,34.75
2022-08-03T17:11:46.505Z,33.96
2022-08-03T17:14:16.789Z,35.00
2022-08-03T17:16:52.549Z,35.78
2022-08-03T17:19:24.611Z,35.65
2022-08-03T17:21:59.028Z,35.82
2022-08-03T17:24:33.064Z,36.16
2022-08-03T17:27:03.341Z,36.64
2022-08-03T17:29:33.605Z,36.06
2022-08-03T17:32:09.285Z,36.02
2022-08-03T17:34:41.662Z,36.15
2022-08-03T17:37:27.110Z,36.94
2022-08-03T17:40:03.000Z,37.47
2022-08-03T17:42:32.994Z,37.50
2022-08-03T17:45:06.759Z,37.53
2022-08-03T17:47:41.972Z,37.90
2022-08-03T17:50:24.410Z,37.89
2022-08-03T17:53:06.831Z,38.21
2022-08-03T17:55:58.420Z,38.29
2022-08-03T17:58:46.337Z,38.56
2022-08-03T18:02:00.753Z,39.05
2022-08-03T18:04:35.411Z,37.87
2022-08-03T18:07:11.565Z,37.51
2022-08-03T18:10:11.003Z,37.47
2022-08-03T18:12:58.484Z,38.24
2022-08-03T18:15:35.916Z,38.12
2022-08-03T18:18:11.020Z,37.98
2022-08-03T18:20:45.764Z,38.13
2022-08-03T18:23:36.874Z,38.19
2022-08-03T18:26:11.917Z,38.58
2022-08-03T18:28:41.731Z,39.03
2022-08-03T18:31:11.900Z,40.78
2022-08-03T18:34:19.211Z,40.27
2022-08-03T18:36:31.109Z,39.94
2022-08-03T18:39:02.699Z,41.54
2022-08-03T18:41:32.364Z,42.30
2022-08-03T18:44:07.606Z,42.26
2022-08-03T18:46:49.028Z,42.67
2022-08-03T18:49:25.742Z,42.44
2022-08-03T18:52:04.555Z,41.43
2022-08-03T18:54:45.526Z,42.66
2022-08-03T18:57:30.242Z,44.70
2022-08-03T19:00:12.199Z,42.98
2022-08-03T19:02:49.002Z,43.26
2022-08-03T19:05:20.443Z,43.55
2022-08-03T19:08:00.105Z,43.95
2022-08-03T19:10:32.244Z,44.32
2022-08-03T19:13:04.903Z,44.71
2022-08-03T19:15:51.387Z,44.77
2022-08-03T19:18:21.609Z,45.25
2022-08-03T19:20:53.188Z,45.36
2022-08-03T19:23:25.944Z,45.77
2022-08-03T19:25:59.817Z,46.68
2022-08-03T19:28:29.726Z,46.84
2022-08-03T19:31:02.724Z,46.98
2022-08-03T19:33:56.123Z,47.18
2022-08-03T19:36:26.557Z,47.19
2022-08-03T19:38:56.687Z,47.72
2022-08-03T19:41:25.657Z,48.07
2022-08-03T19:44:00.908Z,47.87
2022-08-03T19:46:37.865Z,48.14
2022-08-03T19:49:15.469Z,48.20
2022-08-03T19:52:01.863Z,48.73
2022-08-03T19:54:39.652Z,49.28
2022-08-03T19:57:25.302Z,49.59
2022-08-03T19:59:54.570Z,49.61
2022-08-03T20:02:26.615Z,49.94
2022-08-03T20:04:57.370Z,50.02
2022-08-03T20:07:25.829Z,50.32
2022-08-03T20:09:56.522Z,50.75
2022-08-03T20:12:26.629Z,50.86
2022-08-03T20:14:57.394Z,50.79
2022-08-03T20:17:56.923Z,51.01
2022-08-03T20:20:19.758Z,51.27
2022-08-03T20:22:54.179Z,51.70
2022-08-03T20:25:38.934Z,51.94
2022-08-03T20:28:13.881Z,52.14
2022-08-03T20:30:44.428Z,52.58
2022-08-03T20:33:18.335Z,53.34
2022-08-03T20:35:48.999Z,53.83
2022-08-03T20:38:18.665Z,53.60
2022-08-03T20:40:48.044Z,53.78
2022-08-03T20:43:16.136Z,53.71
2022-08-03T20:45:59.125Z,53.83
2022-08-03T20:48:35.928Z,54.34
2022-08-03T20:51:05.579Z,54.40
2022-08-03T20:53:59.467Z,54.53
2022-08-03T20:56:33.740Z,55.35
2022-08-03T20:59:04.004Z,55.85
2022-08-03T21:01:36.233Z,56.10
2022-08-03T21:04:07.180Z,56.12
2022-08-03T21:06:41.394Z,56.52
2022-08-03T21:09:19.085Z,56.67
2022-08-03T21:11:50.408Z,56.89
2022-08-03T21:14:23.725Z,56.89
2022-08-03T21:16:52.841Z,57.23
2022-08-03T21:19:23.349Z,57.42
2022-08-03T21:21:51.615Z,57.93
2022-08-03T21:24:22.758Z,58.28
2022-08-03T21:26:51.830Z,57.77
2022-08-03T21:29:20.022Z,58.32
2022-08-03T21:31:48.822Z,59.00
2022-08-03T21:34:17.093Z,58.87
2022-08-03T21:36:46.567Z,59.42
2022-08-03T21:39:14.637Z,59.71
2022-08-03T21:41:42.827Z,59.35
2022-08-03T21:44:11.083Z,59.39
2022-08-03T21:46:40.938Z,59.82
2022-08-03T21:50:07.971Z,60.34
2022-08-03T21:52:04.887Z,60.54
2022-08-03T21:54:36.143Z,60.98
2022-08-03T21:57:06.529Z,61.59
2022-08-03T21:59:37.917Z,61.85
2022-08-03T22:02:22.563Z,62.08
2022-08-03T22:04:55.722Z,63.13
2022-08-03T22:07:28.232Z,63.51
2022-08-03T22:09:56.751Z,63.34
2022-08-03T22:12:26.618Z,63.77
2022-08-03T22:15:01.064Z,64.15
2022-08-03T22:17:54.771Z,64.08
2022-08-03T22:20:20.209Z,64.26
2022-08-03T22:22:55.109Z,64.16
2022-08-03T22:25:28.687Z,64.25
2022-08-03T22:27:58.451Z,64.31
2022-08-03T22:30:26.607Z,64.15
2022-08-03T22:32:56.126Z,64.01
2022-08-03T22:35:25.902Z,63.89
2022-08-03T22:37:56.647Z,64.03
2022-08-03T22:40:25.482Z,64.66
2022-08-03T22:42:53.635Z,64.76
2022-08-03T22:46:07.817Z,65.16
2022-08-03T22:48:09.759Z,65.59
2022-08-03T22:50:38.329Z,65.69
2022-08-03T22:53:07.745Z,65.65
2022-08-03T22:55:35.797Z,65.94
2022-08-03T22:58:03.855Z,66.19
2022-08-03T23:00:31.869Z,66.33
2022-08-03T23:03:01.397Z,66.05
2022-08-03T23:06:02.189Z,66.19
2022-08-03T23:08:22.596Z,66.17
2022-08-03T23:10:51.595Z,66.29
2022-08-03T23:13:20.586Z,66.24
2022-08-03T23:16:00.922Z,66.48
2022-08-03T23:18:34.160Z,65.72
2022-08-03T23:21:11.163Z,65.77
2022-08-03T23:23:44.256Z,66.04
2022-08-03T23:26:13.352Z,66.14
2022-08-03T23:28:42.524Z,66.44
2022-08-03T23:31:10.881Z,66.67
2022-08-03T23:33:40.081Z,67.32
2022-08-03T23:36:29.554Z,67.60
2022-08-03T23:38:56.826Z,67.88
2022-08-03T23:41:24.876Z,68.67
2022-08-03T23:43:54.078Z,68.37
2022-08-03T23:46:22.967Z,67.72
2022-08-03T23:48:51.590Z,67.87
2022-08-03T23:51:30.589Z,68.01
2022-08-03T23:54:04.797Z,67.91
2022-08-03T23:56:38.545Z,68.04
2022-08-03T23:59:12.819Z,67.58
